• Join FlightAware (Why Join?)
  • Login
  • US Flag 
06:29AM EDT


 

Airport Tracker/Info


-or-


 

Live Flight TrackerFlight Track Log ✈ KAL1931 ✈ 17-Nov-2013 ✈ RKJY / RSU - RKPC / CJU

Flight Track Log - Related Links

Times and Time Zones

All times are in EST time to prevent confusion due to time zone crossing. See the KAL1931 flight status page for this flight to view local times or setup timezone preferences in your user account.

Time Position Orientation Groundspeed Altitude Reporting Facility
EST Latitude Longitude Course Direction KTS MPH feet Rate Location/Type
06:59PM 34.7847 127.5679 215° Southwest  Level Estimated
07:00PM 34.7296 127.5205 215° Southwest  Level Estimated
07:01PM 34.6745 127.4732 215° Southwest  Level Estimated
07:02PM 34.6193 127.4260 215° Southwest  Level Estimated
07:03PM 34.5642 127.3788 215° Southwest  Level Estimated
07:04PM 34.5090 127.3317 215° Southwest  Level Estimated
07:05PM 34.4538 127.2846 215° Southwest  Level Estimated
07:06PM 34.3961 127.2356 215° Southwest  Level Estimated
07:07PM 34.3385 127.1866 215° Southwest  Level Estimated
07:08PM 34.2808 127.1377 215° Southwest  Level Estimated
07:09PM 34.2231 127.0889 215° Southwest  Level Estimated
07:10PM 34.1655 127.0401 215° Southwest  Level Estimated
07:11PM 34.1077 126.9914 215° Southwest  Level Estimated
07:12PM 34.0500 126.9428 215° Southwest  Level Estimated
07:13PM 33.9922 126.8942 215° Southwest  Level Estimated
07:14PM 33.9344 126.8457 215° Southwest  Level Estimated
07:15PM 33.8767 126.7973 215° Southwest  Level Estimated
07:16PM 33.8188 126.7489 215° Southwest  Level Estimated
07:17PM 33.7610 126.7006 215° Southwest  Level Estimated
07:18PM 33.7031 126.6524 215° Southwest  Level Estimated
07:19PM 33.6453 126.6042 215° Southwest  Level Estimated
07:20PM 33.5874 126.5561 215° Southwest  Level Estimated
07:21PM 33.5295 126.5081 215° Southwest  Level Estimated
07:22PM 33.5113 126.4930 215° Southwest  Level Estimated
07:23PM 33.5113 126.4930 203° Southwest  Level Estimated
07:24PM 33.5113 126.4930 203° Southwest  Level Estimated
07:25PM 33.5113 126.4930 203° Southwest  Level Estimated
07:26PM 33.5113 126.4930 203° Southwest  Level Estimated
07:27PM 33.5113 126.4930 203° Southwest  Level Estimated